createdAt,value
2023-02-07T00:07:26.992Z,1028.92
2023-02-07T00:17:24.880Z,1028.96
2023-02-07T00:27:25.212Z,1028.87
2023-02-07T00:37:25.256Z,1028.89
2023-02-07T00:47:26.502Z,1028.96
2023-02-07T00:57:25.851Z,1028.88
2023-02-07T01:07:25.961Z,1028.84
2023-02-07T01:17:26.001Z,1028.76
2023-02-07T01:27:26.328Z,1028.78
2023-02-07T01:37:26.376Z,1028.73
2023-02-07T01:47:26.751Z,1028.78
2023-02-07T01:57:26.860Z,1028.85
2023-02-07T02:07:26.970Z,1029.11
2023-02-07T02:17:27.011Z,1029.02
2023-02-07T02:27:29.276Z,1028.97
2023-02-07T02:37:27.524Z,1029.21
2023-02-07T02:47:27.809Z,1029.26
2023-02-07T02:57:27.856Z,1029.40
2023-02-07T03:07:28.189Z,1029.50
2023-02-07T03:17:28.311Z,1029.45
2023-02-07T03:27:28.528Z,1029.58
2023-02-07T03:37:28.582Z,1029.72
2023-02-07T03:47:28.936Z,1029.96
2023-02-07T03:57:28.975Z,1030.25
2023-02-07T04:07:29.290Z,1030.28
2023-02-07T04:17:31.302Z,1030.27
2023-02-07T04:27:29.557Z,1030.41
2023-02-07T04:37:29.789Z,1030.27
2023-02-07T04:47:30.139Z,1030.42
2023-02-07T04:57:30.195Z,1030.37
2023-02-07T05:07:30.304Z,1030.37
2023-02-07T05:17:30.537Z,1030.38
2023-02-07T05:27:30.885Z,1030.54
2023-02-07T05:37:30.922Z,1030.57
2023-02-07T05:47:31.233Z,1030.46
2023-02-07T05:57:31.281Z,1030.51
2023-02-07T06:07:31.612Z,1030.12
2023-02-07T06:17:31.632Z,1030.21
2023-02-07T06:27:31.980Z,1030.59
2023-02-07T06:37:32.012Z,1030.83
2023-02-07T06:47:32.370Z,1030.87
2023-02-07T06:57:32.433Z,1030.56
2023-02-07T07:07:35.185Z,1030.50
2023-02-07T07:17:32.609Z,1030.64
2023-02-07T07:27:32.885Z,1030.54
2023-02-07T07:37:33.145Z,1030.55
2023-02-07T07:47:33.463Z,1030.71
2023-02-07T07:57:33.501Z,1030.84
2023-02-07T08:07:33.827Z,1031.06
2023-02-07T08:17:33.856Z,1030.93
2023-02-07T08:27:34.204Z,1030.90
2023-02-07T08:37:34.240Z,1030.62
2023-02-07T08:47:34.567Z,1030.61
2023-02-07T08:57:34.640Z,1030.57
2023-02-07T09:07:34.944Z,1030.55
2023-02-07T09:17:34.981Z,1030.76
2023-02-07T09:27:35.325Z,1030.96
2023-02-07T09:37:48.803Z,1030.62
2023-02-07T09:47:36.661Z,1030.93
2023-02-07T09:57:35.766Z,1031.02
2023-02-07T10:07:35.780Z,1030.99
2023-02-07T10:17:36.030Z,1031.04
2023-02-07T10:27:36.282Z,1031.06
2023-02-07T10:37:36.617Z,1031.07
2023-02-07T10:47:36.661Z,1031.08
2023-02-07T10:57:36.976Z,1031.10
2023-02-07T11:07:47.386Z,1031.06
2023-02-07T11:17:38.122Z,1030.94
2023-02-07T11:27:37.438Z,1030.91
2023-02-07T11:37:37.504Z,1031.05
2023-02-07T11:47:37.819Z,1031.06
2023-02-07T11:57:37.851Z,1031.11
2023-02-07T12:07:38.176Z,1031.05
2023-02-07T12:17:38.202Z,1031.14
2023-02-07T12:27:38.555Z,1031.06
2023-02-07T12:37:38.600Z,1030.97
2023-02-07T12:47:38.931Z,1030.80
2023-02-07T12:57:38.953Z,1030.90
2023-02-07T13:07:39.290Z,1030.89
2023-02-07T13:17:39.311Z,1030.85
2023-02-07T13:27:39.652Z,1030.88
2023-02-07T13:37:39.679Z,1030.87
2023-02-07T13:47:40.023Z,1030.91
2023-02-07T13:57:40.085Z,1030.87
2023-02-07T14:07:40.407Z,1030.93
2023-02-07T14:17:40.418Z,1030.83
2023-02-07T14:27:40.682Z,1030.75
2023-02-07T14:37:40.728Z,1030.64
2023-02-07T14:47:41.245Z,1030.71
2023-02-07T14:57:41.161Z,1030.69
2023-02-07T15:07:41.402Z,1030.77
2023-02-07T15:17:44.482Z,1030.80
2023-02-07T15:27:42.809Z,1030.74
2023-02-07T15:37:41.848Z,1030.80
2023-02-07T15:47:42.086Z,1030.91
2023-02-07T15:57:42.317Z,1030.96
2023-02-07T16:07:42.583Z,1031.03
2023-02-07T16:17:42.818Z,1031.32
2023-02-07T16:27:43.095Z,1031.31
2023-02-07T16:37:43.177Z,1031.31
2023-02-07T16:47:43.360Z,1031.42
2023-02-07T16:57:43.424Z,1031.45
2023-02-07T17:07:43.733Z,1031.46
2023-02-07T17:17:43.761Z,1031.46
2023-02-07T17:27:44.100Z,1031.47
2023-02-07T17:37:44.456Z,1031.52
2023-02-07T17:47:45.548Z,1031.44
2023-02-07T17:57:44.474Z,1031.41
2023-02-07T18:07:45.011Z,1031.51
2023-02-07T18:17:45.045Z,1031.49
2023-02-07T18:27:45.285Z,1031.64
2023-02-07T18:37:46.275Z,1031.59
2023-02-07T18:47:45.735Z,1031.60
2023-02-07T18:57:45.942Z,1031.59
2023-02-07T19:07:47.174Z,1031.66
2023-02-07T19:17:47.975Z,1031.58
2023-02-07T19:27:46.582Z,1031.68
2023-02-07T19:37:46.598Z,1031.58
2023-02-07T19:47:46.536Z,1031.53
2023-02-07T19:57:47.084Z,1031.39
2023-02-07T20:07:47.281Z,1031.27
2023-02-07T20:17:47.503Z,1031.17
2023-02-07T20:27:47.864Z,1031.20
2023-02-07T20:37:48.352Z,1031.20
2023-02-07T20:47:47.943Z,1031.28
2023-02-07T20:57:48.128Z,1031.33
2023-02-07T21:07:50.602Z,1031.31
2023-02-07T21:17:52.857Z,1031.38
2023-02-07T21:27:48.434Z,1031.43
2023-02-07T21:37:48.516Z,1031.41
2023-02-07T21:47:48.682Z,1031.46
2023-02-07T21:57:48.923Z,1031.31
2023-02-07T22:07:48.955Z,1031.33
2023-02-07T22:17:49.261Z,1031.26
2023-02-07T22:27:49.321Z,1031.22
2023-02-07T22:37:49.648Z,1031.18
2023-02-07T22:47:49.675Z,1031.21
2023-02-07T22:57:50.000Z,1031.21
2023-02-07T23:07:50.049Z,1031.24
2023-02-07T23:17:50.382Z,1031.31
2023-02-07T23:27:50.423Z,1031.26
2023-02-07T23:37:50.535Z,1031.29
2023-02-07T23:47:50.771Z,1031.21
2023-02-07T23:57:52.060Z,1031.13
